Time;durP1;ratioP1;P1;durP2;ratioP2;P2;SDS_P1;SDS_P2;PMS_P1;PMS_P2;Temp;Humidity;BMP_temperature;BMP_pressure;BME280_temperature;BME280_humidity;BME280_pressure;Samples;Min_cycle;Max_cycle;Signal;HPM_P1;HPM_P2
2023/06/18 00:01:57;;;;;;;;;;;12.20;99.90;;;;;;5036602;28;20332;-84
2023/06/18 00:04:22;;;;;;;;;;;12.20;99.90;;;;;;5033865;28;20381;-84
2023/06/18 00:06:48;;;;;;;;;;;12.20;99.90;;;;;;5034180;28;19916;-84
2023/06/18 00:09:13;;;;;;;;;;;12.30;99.90;;;;;;5022721;28;20012;-85
2023/06/18 00:11:39;;;;;;;;;;;12.20;99.90;;;;;;5023849;28;20003;-85
2023/06/18 00:14:05;;;;;;;;;;;12.20;99.90;;;;;;5028458;28;19920;-84
2023/06/18 00:16:30;;;;;;;;;;;12.10;99.90;;;;;;5027536;28;19913;-84
2023/06/18 00:18:56;;;;;;;;;;;12.00;99.90;;;;;;5050920;28;19913;-84
2023/06/18 00:21:21;;;;;;;;;;;11.90;99.90;;;;;;5036658;28;20034;-84
2023/06/18 00:23:47;;;;;;;;;;;11.90;99.90;;;;;;5028649;28;19941;-84
2023/06/18 00:26:12;;;;;;;;;;;11.90;99.90;;;;;;5030120;28;20360;-84
2023/06/18 00:28:38;;;;;;;;;;;12.00;99.90;;;;;;5040822;28;20281;-83
2023/06/18 00:31:03;;;;;;;;;;;12.00;99.90;;;;;;5032716;28;20300;-84
2023/06/18 00:33:32;;;;;;;;;;;12.10;99.90;;;;;;5037436;28;20277;-84
2023/06/18 00:35:59;;;;;;;;;;;12.00;99.90;;;;;;5026624;28;19914;-84
2023/06/18 00:38:26;;;;;;;;;;;12.00;99.90;;;;;;5014316;28;19920;-85
2023/06/18 00:40:52;;;;;;;;;;;12.00;99.90;;;;;;5032048;28;20285;-84
2023/06/18 00:43:18;;;;;;;;;;;12.00;99.90;;;;;;5020651;28;19916;-84
2023/06/18 00:45:47;;;;;;;;;;;12.00;99.90;;;;;;5037564;28;19947;-84
2023/06/18 00:48:13;;;;;;;;;;;12.00;99.90;;;;;;5027345;28;19909;-84
2023/06/18 00:50:40;;;;;;;;;;;11.90;99.90;;;;;;5044973;28;19932;-84
2023/06/18 00:53:07;;;;;;;;;;;11.90;99.90;;;;;;5031911;28;19912;-82
2023/06/18 00:55:36;;;;;;;;;;;11.90;99.90;;;;;;5028825;28;19912;-82
2023/06/18 00:58:02;;;;;;;;;;;11.80;99.90;;;;;;5040974;28;19914;-82
2023/06/18 01:00:30;;;;;;;;;;;11.80;99.90;;;;;;5017378;28;19914;-82
2023/06/18 01:02:56;;;;;;;;;;;11.80;99.90;;;;;;5024742;28;20385;-82
2023/06/18 01:05:23;;;;;;;;;;;11.80;99.90;;;;;;5038468;28;19915;-83
2023/06/18 01:07:49;;;;;;;;;;;11.70;99.90;;;;;;5036554;28;19983;-82
2023/06/18 01:10:15;;;;;;;;;;;11.70;99.90;;;;;;5053007;28;19920;-82
2023/06/18 01:12:42;;;;;;;;;;;11.70;99.90;;;;;;5053246;28;20335;-82
2023/06/18 01:15:09;;;;;;;;;;;11.70;99.90;;;;;;5052509;28;19955;-82
2023/06/18 01:17:37;;;;;;;;;;;11.60;99.90;;;;;;5036007;28;19916;-82
2023/06/18 01:20:10;;;;;;;;;;;11.60;99.90;;;;;;5051834;28;19963;-83
2023/06/18 01:22:44;;;;;;;;;;;11.50;99.90;;;;;;5036422;28;19905;-82
2023/06/18 01:25:10;;;;;;;;;;;11.40;99.90;;;;;;5026075;28;19913;-82
2023/06/18 01:27:43;;;;;;;;;;;11.30;99.90;;;;;;5031743;28;19996;-82
2023/06/18 01:30:11;;;;;;;;;;;11.10;99.90;;;;;;5031581;28;20047;-82
2023/06/18 01:32:36;;;;;;;;;;;11.10;99.90;;;;;;5046678;28;19913;-83
2023/06/18 01:35:03;;;;;;;;;;;11.10;99.90;;;;;;5015856;28;19984;-82
2023/06/18 01:37:46;;;;;;;;;;;11.10;99.90;;;;;;5032048;28;19912;-82
2023/06/18 01:40:18;;;;;;;;;;;11.10;99.90;;;;;;5030990;28;19916;-82
2023/06/18 01:42:56;;;;;;;;;;;11.10;99.90;;;;;;5013835;28;19906;-82
2023/06/18 01:45:25;;;;;;;;;;;11.10;99.90;;;;;;5015171;28;19914;-82
2023/06/18 01:47:54;;;;;;;;;;;11.10;99.90;;;;;;5032161;28;20369;-82
2023/06/18 01:50:20;;;;;;;;;;;11.10;99.90;;;;;;5022317;28;20031;-82
2023/06/18 01:52:47;;;;;;;;;;;11.10;99.90;;;;;;5025082;28;20374;-82
2023/06/18 01:55:14;;;;;;;;;;;11.00;99.90;;;;;;5019795;28;19909;-82
2023/06/18 01:57:40;;;;;;;;;;;11.00;99.90;;;;;;5035276;28;20364;-82
2023/06/18 02:00:06;;;;;;;;;;;11.00;99.90;;;;;;5023682;28;19913;-82
2023/06/18 02:02:32;;;;;;;;;;;11.00;99.90;;;;;;5017968;28;19921;-82
2023/06/18 02:04:58;;;;;;;;;;;11.00;99.90;;;;;;5036532;28;19909;-82
2023/06/18 02:07:23;;;;;;;;;;;10.90;99.90;;;;;;5038492;28;20292;-82
2023/06/18 02:09:49;;;;;;;;;;;10.90;99.90;;;;;;5030621;28;20087;-82
2023/06/18 02:12:14;;;;;;;;;;;10.90;99.90;;;;;;5030119;28;19920;-82
2023/06/18 02:14:40;;;;;;;;;;;10.90;99.90;;;;;;5034579;28;19913;-82
2023/06/18 02:17:05;;;;;;;;;;;10.90;99.90;;;;;;5036770;28;19909;-82
2023/06/18 02:19:31;;;;;;;;;;;10.80;99.90;;;;;;5038696;28;20280;-82
2023/06/18 02:21:56;;;;;;;;;;;10.70;99.90;;;;;;5039189;28;20276;-82
2023/06/18 02:24:22;;;;;;;;;;;10.70;99.90;;;;;;5034376;28;20395;-82
2023/06/18 02:26:48;;;;;;;;;;;10.70;99.90;;;;;;5035460;28;19909;-82
2023/06/18 02:29:13;;;;;;;;;;;10.70;99.90;;;;;;5032048;28;19971;-82
2023/06/18 02:31:39;;;;;;;;;;;10.70;99.90;;;;;;5049481;28;19909;-83
2023/06/18 02:34:04;;;;;;;;;;;10.70;99.90;;;;;;5042000;28;19920;-82
2023/06/18 02:36:32;;;;;;;;;;;10.70;99.90;;;;;;5034250;28;19913;-82
2023/06/18 02:38:57;;;;;;;;;;;10.70;99.90;;;;;;5034474;28;20037;-82
2023/06/18 02:41:23;;;;;;;;;;;10.60;99.90;;;;;;5026934;28;20040;-82
2023/06/18 02:43:49;;;;;;;;;;;10.50;99.90;;;;;;5031344;28;19910;-82
2023/06/18 02:46:18;;;;;;;;;;;10.50;99.90;;;;;;5028238;28;19921;-82
2023/06/18 02:48:43;;;;;;;;;;;10.40;99.90;;;;;;5019927;28;19905;-82
2023/06/18 02:51:09;;;;;;;;;;;10.40;99.90;;;;;;5038106;28;20423;-82
2023/06/18 02:53:35;;;;;;;;;;;10.40;99.90;;;;;;5037477;28;19996;-82
2023/06/18 02:56:01;;;;;;;;;;;10.40;99.90;;;;;;5037115;28;19971;-82
2023/06/18 02:58:29;;;;;;;;;;;10.40;99.90;;;;;;5037248;28;19905;-82
2023/06/18 03:00:55;;;;;;;;;;;10.40;99.90;;;;;;5034707;28;19913;-82
2023/06/18 03:03:21;;;;;;;;;;;10.40;99.90;;;;;;5027828;28;19920;-82
2023/06/18 03:05:47;;;;;;;;;;;10.30;99.90;;;;;;5038099;28;19941;-82
2023/06/18 03:08:13;;;;;;;;;;;10.30;99.90;;;;;;5053294;28;19919;-82
2023/06/18 03:10:39;;;;;;;;;;;10.30;99.90;;;;;;5037438;28;19913;-82
2023/06/18 03:13:05;;;;;;;;;;;10.20;99.90;;;;;;5019066;28;19916;-82
2023/06/18 03:15:30;;;;;;;;;;;10.10;99.90;;;;;;5028506;28;19909;-82
2023/06/18 03:17:56;;;;;;;;;;;9.90;99.90;;;;;;5019596;28;20352;-82
2023/06/18 03:20:23;;;;;;;;;;;9.70;99.90;;;;;;5018994;28;20008;-82
2023/06/18 03:22:49;;;;;;;;;;;9.60;99.90;;;;;;5022426;28;20361;-82
2023/06/18 03:25:14;;;;;;;;;;;9.50;99.90;;;;;;5027584;28;19917;-82
2023/06/18 03:27:40;;;;;;;;;;;9.40;99.90;;;;;;5035428;28;24072;-82
2023/06/18 03:30:06;;;;;;;;;;;9.40;99.90;;;;;;5035431;28;19920;-82
2023/06/18 03:32:32;;;;;;;;;;;9.50;99.90;;;;;;5011535;28;19936;-82
2023/06/18 03:34:58;;;;;;;;;;;9.60;99.90;;;;;;5025894;28;20554;-82
2023/06/18 03:37:23;;;;;;;;;;;9.60;99.90;;;;;;5022490;28;19921;-82
2023/06/18 03:39:49;;;;;;;;;;;9.70;99.90;;;;;;5032383;28;20505;-82
2023/06/18 03:42:15;;;;;;;;;;;9.60;99.90;;;;;;5031011;28;19905;-82
2023/06/18 03:44:40;;;;;;;;;;;9.70;99.90;;;;;;5017452;28;20066;-82
2023/06/18 03:47:06;;;;;;;;;;;9.70;99.90;;;;;;5031459;28;20050;-82
2023/06/18 03:49:32;;;;;;;;;;;9.70;99.90;;;;;;5024562;28;19920;-82
2023/06/18 03:51:58;;;;;;;;;;;9.70;99.90;;;;;;5024767;28;19906;-82
2023/06/18 03:54:26;;;;;;;;;;;9.70;99.90;;;;;;5030926;28;19909;-82
2023/06/18 03:56:52;;;;;;;;;;;9.70;99.90;;;;;;5020591;28;19971;-82
2023/06/18 03:59:18;;;;;;;;;;;9.70;99.90;;;;;;5023222;28;24068;-82
2023/06/18 04:01:43;;;;;;;;;;;9.70;99.90;;;;;;5018171;28;24077;-82
2023/06/18 04:04:09;;;;;;;;;;;9.70;99.90;;;;;;5033813;28;24072;-83
2023/06/18 04:06:34;;;;;;;;;;;9.80;99.90;;;;;;5035360;28;19913;-82
2023/06/18 04:09:00;;;;;;;;;;;9.80;99.90;;;;;;5034970;28;19956;-82
2023/06/18 04:11:27;;;;;;;;;;;9.80;99.90;;;;;;5031027;28;24068;-82
2023/06/18 04:13:52;;;;;;;;;;;9.80;99.90;;;;;;5023005;28;24145;-82
2023/06/18 04:16:18;;;;;;;;;;;9.80;99.90;;;;;;5036423;28;19909;-82
2023/06/18 04:18:43;;;;;;;;;;;9.90;99.90;;;;;;5034394;28;20369;-82
2023/06/18 04:21:09;;;;;;;;;;;9.90;99.90;;;;;;5035432;28;20315;-82
2023/06/18 04:23:34;;;;;;;;;;;9.90;99.90;;;;;;5034574;28;19909;-82
2023/06/18 04:26:00;;;;;;;;;;;9.90;99.90;;;;;;5032282;28;19905;-82
2023/06/18 04:28:25;;;;;;;;;;;9.90;99.90;;;;;;5033692;28;24090;-82
2023/06/18 04:30:51;;;;;;;;;;;9.80;99.90;;;;;;5035709;28;20131;-82
2023/06/18 04:33:16;;;;;;;;;;;9.70;99.90;;;;;;5035428;28;19916;-82
2023/06/18 04:35:42;;;;;;;;;;;9.70;99.90;;;;;;5034220;28;20074;-82
2023/06/18 04:38:09;;;;;;;;;;;9.70;99.90;;;;;;5026465;28;19974;-82
2023/06/18 04:40:35;;;;;;;;;;;9.80;99.90;;;;;;5034444;28;20036;-82
2023/06/18 04:43:01;;;;;;;;;;;9.80;99.90;;;;;;5036407;28;19916;-82
2023/06/18 04:45:27;;;;;;;;;;;9.90;99.90;;;;;;5028201;28;20487;-82
2023/06/18 04:47:52;;;;;;;;;;;10.00;99.90;;;;;;5026754;28;20046;-82
2023/06/18 04:50:18;;;;;;;;;;;10.00;99.90;;;;;;5028114;28;20076;-82
2023/06/18 04:52:44;;;;;;;;;;;10.10;99.90;;;;;;5037013;28;20042;-82
2023/06/18 04:55:10;;;;;;;;;;;10.10;99.90;;;;;;5034389;28;20034;-82
2023/06/18 04:57:35;;;;;;;;;;;10.20;99.90;;;;;;5022962;28;19909;-82
2023/06/18 05:00:04;;;;;;;;;;;10.30;99.90;;;;;;5016351;28;20388;-82
2023/06/18 05:02:29;;;;;;;;;;;10.30;99.90;;;;;;5013781;28;20036;-82
2023/06/18 05:04:55;;;;;;;;;;;10.40;99.90;;;;;;5029302;28;20281;-82
2023/06/18 05:07:20;;;;;;;;;;;10.40;99.90;;;;;;5027314;28;20397;-82
2023/06/18 05:09:46;;;;;;;;;;;10.50;99.90;;;;;;5026058;28;19913;-82
2023/06/18 05:12:11;;;;;;;;;;;10.50;99.90;;;;;;5034086;28;20046;-83
2023/06/18 05:14:37;;;;;;;;;;;10.60;99.90;;;;;;5032864;28;19913;-82
2023/06/18 05:17:02;;;;;;;;;;;10.60;99.90;;;;;;5063103;28;20133;-82
2023/06/18 05:19:28;;;;;;;;;;;10.70;99.90;;;;;;5028858;28;20037;-83
2023/06/18 05:21:54;;;;;;;;;;;10.70;99.90;;;;;;5040665;28;20028;-82
2023/06/18 05:24:19;;;;;;;;;;;10.70;99.90;;;;;;5040761;28;19909;-82
2023/06/18 05:26:45;;;;;;;;;;;10.80;99.90;;;;;;5034327;28;20044;-82
2023/06/18 05:29:10;;;;;;;;;;;10.90;99.90;;;;;;5032628;28;20062;-82
2023/06/18 05:31:36;;;;;;;;;;;10.90;99.90;;;;;;5033153;28;20046;-82
2023/06/18 05:34:01;;;;;;;;;;;11.00;99.90;;;;;;5031331;28;19916;-82
2023/06/18 05:36:27;;;;;;;;;;;11.10;99.90;;;;;;5029967;28;19913;-83
2023/06/18 05:38:58;;;;;;;;;;;11.20;99.90;;;;;;5016869;28;20029;-82
2023/06/18 05:41:25;;;;;;;;;;;11.20;99.90;;;;;;5033648;28;20034;-82
2023/06/18 05:43:50;;;;;;;;;;;11.30;99.90;;;;;;5027635;28;20088;-82
2023/06/18 05:46:16;;;;;;;;;;;11.50;99.90;;;;;;5011189;28;20043;-83
2023/06/18 05:48:41;;;;;;;;;;;11.50;99.90;;;;;;5013695;28;20041;-82
2023/06/18 05:51:07;;;;;;;;;;;11.60;99.90;;;;;;5022911;28;20049;-82
2023/06/18 05:53:32;;;;;;;;;;;11.70;99.90;;;;;;5019084;28;20156;-82
2023/06/18 05:55:58;;;;;;;;;;;11.90;99.90;;;;;;5029085;28;20038;-83
2023/06/18 05:58:24;;;;;;;;;;;11.90;99.90;;;;;;5023623;28;20462;-82
2023/06/18 06:00:49;;;;;;;;;;;12.10;99.90;;;;;;5025673;28;20046;-83
2023/06/18 06:03:15;;;;;;;;;;;12.10;99.90;;;;;;5038883;28;20037;-83
2023/06/18 06:05:41;;;;;;;;;;;12.20;99.90;;;;;;5032301;28;20044;-83
2023/06/18 06:08:06;;;;;;;;;;;12.40;99.90;;;;;;5031888;28;20049;-83
2023/06/18 06:10:33;;;;;;;;;;;12.40;99.90;;;;;;5026085;28;20037;-83
2023/06/18 06:12:59;;;;;;;;;;;12.60;99.90;;;;;;5028163;28;20034;-83
2023/06/18 06:15:24;;;;;;;;;;;12.60;99.90;;;;;;5032432;28;20034;-83
2023/06/18 06:17:50;;;;;;;;;;;12.80;99.90;;;;;;5031865;28;20029;-83
2023/06/18 06:20:15;;;;;;;;;;;12.90;99.90;;;;;;5012292;28;20046;-83
2023/06/18 06:22:41;;;;;;;;;;;12.90;99.90;;;;;;5012833;28;20062;-82
2023/06/18 06:25:06;;;;;;;;;;;13.10;99.90;;;;;;5031833;28;20056;-82
2023/06/18 06:27:33;;;;;;;;;;;13.20;99.90;;;;;;5014352;28;20045;-83
2023/06/18 06:30:01;;;;;;;;;;;13.30;99.90;;;;;;5013317;28;20039;-82
2023/06/18 06:32:27;;;;;;;;;;;13.40;99.90;;;;;;5031050;28;20361;-82
2023/06/18 06:34:53;;;;;;;;;;;13.50;99.90;;;;;;5010371;28;19944;-83
2023/06/18 06:37:18;;;;;;;;;;;13.60;99.90;;;;;;5025130;28;19956;-83
2023/06/18 06:39:44;;;;;;;;;;;13.70;99.90;;;;;;5026085;28;20094;-83
2023/06/18 06:42:10;;;;;;;;;;;13.80;99.90;;;;;;5011082;28;19936;-82
2023/06/18 06:44:36;;;;;;;;;;;13.90;99.90;;;;;;5010946;28;20143;-82
2023/06/18 06:47:02;;;;;;;;;;;14.10;99.90;;;;;;5013379;28;20464;-82
2023/06/18 06:49:27;;;;;;;;;;;14.20;99.90;;;;;;5034593;28;20403;-82
2023/06/18 06:51:56;;;;;;;;;;;14.30;99.90;;;;;;5025438;28;20046;-82
2023/06/18 06:54:22;;;;;;;;;;;14.50;99.90;;;;;;5015824;28;20506;-82
2023/06/18 06:56:48;;;;;;;;;;;14.60;99.90;;;;;;5016652;28;20060;-84
2023/06/18 06:59:13;;;;;;;;;;;14.70;99.90;;;;;;5035384;28;20063;-84
2023/06/18 07:01:39;;;;;;;;;;;14.90;99.90;;;;;;5007688;28;19917;-84
2023/06/18 07:04:05;;;;;;;;;;;15.00;99.90;;;;;;5014717;28;19963;-84
2023/06/18 07:06:30;;;;;;;;;;;15.20;99.90;;;;;;5016061;28;20074;-84
2023/06/18 07:08:57;;;;;;;;;;;15.30;99.90;;;;;;5032959;28;20041;-84
2023/06/18 07:11:23;;;;;;;;;;;15.50;99.90;;;;;;5033048;28;20025;-83
2023/06/18 07:13:48;;;;;;;;;;;15.60;99.90;;;;;;5031631;28;20408;-84
2023/06/18 07:16:14;;;;;;;;;;;15.80;99.90;;;;;;5032779;28;20076;-83
2023/06/18 07:18:40;;;;;;;;;;;15.90;99.90;;;;;;5032839;28;20395;-83
2023/06/18 07:21:05;;;;;;;;;;;16.00;99.90;;;;;;5031829;28;19909;-83
2023/06/18 07:23:31;;;;;;;;;;;16.20;99.90;;;;;;5034481;28;19905;-83
2023/06/18 07:25:56;;;;;;;;;;;16.30;99.90;;;;;;5034855;28;20357;-83
2023/06/18 07:28:22;;;;;;;;;;;16.50;99.90;;;;;;5033654;28;19909;-84
2023/06/18 07:30:47;;;;;;;;;;;16.60;99.90;;;;;;5033432;28;20120;-84
2023/06/18 07:33:13;;;;;;;;;;;16.80;99.90;;;;;;5018496;28;19909;-84
2023/06/18 07:35:38;;;;;;;;;;;17.00;99.90;;;;;;5035194;28;19948;-84
2023/06/18 07:38:04;;;;;;;;;;;17.10;99.90;;;;;;5005963;28;20070;-83
2023/06/18 07:40:33;;;;;;;;;;;17.30;99.90;;;;;;5014493;28;20057;-83
2023/06/18 07:42:59;;;;;;;;;;;17.50;99.90;;;;;;5014388;28;20136;-83
2023/06/18 07:45:24;;;;;;;;;;;17.60;99.90;;;;;;5017518;28;20075;-83
2023/06/18 07:47:50;;;;;;;;;;;17.80;99.90;;;;;;5035566;28;20039;-83
2023/06/18 07:50:15;;;;;;;;;;;17.90;99.90;;;;;;5035193;28;20513;-83
2023/06/18 07:52:41;;;;;;;;;;;18.10;99.40;;;;;;5034462;28;20046;-83
2023/06/18 07:55:07;;;;;;;;;;;18.20;98.40;;;;;;5033023;28;19909;-83
2023/06/18 07:57:32;;;;;;;;;;;18.30;98.80;;;;;;5033701;28;20041;-83
2023/06/18 07:59:58;;;;;;;;;;;18.40;99.20;;;;;;5033663;28;20053;-83
2023/06/18 08:02:23;;;;;;;;;;;18.60;99.90;;;;;;5034621;28;20063;-83
2023/06/18 08:04:49;;;;;;;;;;;18.70;99.90;;;;;;5032811;28;19916;-83
2023/06/18 08:07:14;;;;;;;;;;;18.80;99.10;;;;;;5033027;28;19909;-83
2023/06/18 08:09:40;;;;;;;;;;;18.90;98.80;;;;;;5028906;28;19917;-83
2023/06/18 08:12:06;;;;;;;;;;;19.10;98.90;;;;;;5014922;28;20042;-83
2023/06/18 08:14:32;;;;;;;;;;;19.20;98.10;;;;;;5017588;28;20019;-83
2023/06/18 08:16:57;;;;;;;;;;;19.40;98.10;;;;;;5033920;28;19917;-83
2023/06/18 08:19:23;;;;;;;;;;;19.50;97.10;;;;;;5016851;28;19916;-83
2023/06/18 08:21:49;;;;;;;;;;;19.70;96.90;;;;;;5034050;28;20376;-83
2023/06/18 08:24:15;;;;;;;;;;;19.90;96.10;;;;;;5035771;28;19932;-83
2023/06/18 08:26:40;;;;;;;;;;;20.00;96.50;;;;;;5035380;28;19905;-83
2023/06/18 08:29:06;;;;;;;;;;;20.20;96.20;;;;;;5035358;28;19909;-83
2023/06/18 08:31:31;;;;;;;;;;;20.30;93.30;;;;;;5033924;28;20277;-83
2023/06/18 08:33:57;;;;;;;;;;;20.40;92.90;;;;;;5033010;28;19920;-83
2023/06/18 08:36:23;;;;;;;;;;;20.60;94.40;;;;;;5033689;28;20000;-83
2023/06/18 08:38:48;;;;;;;;;;;20.70;94.30;;;;;;5026476;28;19937;-83
2023/06/18 08:41:14;;;;;;;;;;;20.80;92.20;;;;;;5015494;28;20259;-83
2023/06/18 08:43:40;;;;;;;;;;;21.00;91.80;;;;;;5030216;28;20004;-83
2023/06/18 08:46:12;;;;;;;;;;;21.10;91.00;;;;;;5014946;28;19909;-83
2023/06/18 08:48:41;;;;;;;;;;;21.20;90.60;;;;;;5019730;28;19983;-83
2023/06/18 08:51:08;;;;;;;;;;;21.40;90.30;;;;;;5023111;28;19914;-83
2023/06/18 08:53:38;;;;;;;;;;;21.50;90.60;;;;;;5026257;28;19996;-83
2023/06/18 08:56:04;;;;;;;;;;;21.60;86.40;;;;;;5031740;28;20400;-83
2023/06/18 08:58:32;;;;;;;;;;;21.70;86.90;;;;;;5017050;28;20004;-83
2023/06/18 09:00:58;;;;;;;;;;;21.80;86.80;;;;;;5033921;28;20007;-83
2023/06/18 09:03:24;;;;;;;;;;;22.00;85.10;;;;;;5033930;28;19996;-83
2023/06/18 09:05:50;;;;;;;;;;;22.20;84.10;;;;;;5033197;28;20361;-84
2023/06/18 09:08:16;;;;;;;;;;;22.30;82.90;;;;;;5033865;28;19953;-83
2023/06/18 09:10:41;;;;;;;;;;;22.40;84.60;;;;;;5033677;28;20357;-83
2023/06/18 09:13:07;;;;;;;;;;;22.50;83.10;;;;;;5030058;28;19913;-83
2023/06/18 09:15:32;;;;;;;;;;;22.60;82.50;;;;;;5023007;28;19909;-83
2023/06/18 09:17:58;;;;;;;;;;;22.70;77.70;;;;;;5027004;28;20289;-83
2023/06/18 09:20:24;;;;;;;;;;;22.90;79.20;;;;;;5035090;28;20257;-83
2023/06/18 09:22:49;;;;;;;;;;;23.00;76.50;;;;;;5028446;28;20344;-82
2023/06/18 09:25:21;;;;;;;;;;;23.10;74.30;;;;;;5039108;28;20003;-83
2023/06/18 09:27:47;;;;;;;;;;;23.20;74.90;;;;;;5024903;28;19993;-83
2023/06/18 09:30:19;;;;;;;;;;;23.40;76.50;;;;;;5029819;28;20015;-83
2023/06/18 09:32:48;;;;;;;;;;;23.50;73.30;;;;;;5023478;28;19913;-84
2023/06/18 09:35:17;;;;;;;;;;;23.60;73.60;;;;;;5030100;28;20404;-83
2023/06/18 09:37:43;;;;;;;;;;;23.80;75.20;;;;;;5025296;28;19917;-83
2023/06/18 09:40:18;;;;;;;;;;;23.90;74.10;;;;;;5017076;28;19956;-83
2023/06/18 09:42:45;;;;;;;;;;;24.00;70.20;;;;;;5029675;28;19963;-83
2023/06/18 09:45:10;;;;;;;;;;;24.10;72.80;;;;;;5018179;28;19979;-82
2023/06/18 09:47:37;;;;;;;;;;;24.30;72.50;;;;;;5023497;28;20368;-83
2023/06/18 09:50:02;;;;;;;;;;;24.40;68.70;;;;;;5015833;28;19909;-83
2023/06/18 09:52:28;;;;;;;;;;;24.50;68.00;;;;;;5017841;28;19955;-83
2023/06/18 09:54:54;;;;;;;;;;;24.60;62.30;;;;;;5064735;28;20261;-83
2023/06/18 09:57:19;;;;;;;;;;;24.70;62.10;;;;;;5052681;28;20331;-83
2023/06/18 09:59:45;;;;;;;;;;;24.80;64.80;;;;;;5032714;28;19921;-83
2023/06/18 10:02:13;;;;;;;;;;;24.90;62.70;;;;;;5028250;28;19917;-83
2023/06/18 10:04:39;;;;;;;;;;;25.10;63.90;;;;;;5027533;28;19913;-83
2023/06/18 10:07:06;;;;;;;;;;;25.20;61.00;;;;;;5024721;28;20340;-83
2023/06/18 10:09:32;;;;;;;;;;;25.30;58.60;;;;;;5021803;28;20561;-83
2023/06/18 10:11:58;;;;;;;;;;;25.40;61.30;;;;;;5032325;28;19976;-83
2023/06/18 10:14:27;;;;;;;;;;;25.60;60.30;;;;;;5016900;28;19932;-83
2023/06/18 10:16:54;;;;;;;;;;;25.70;57.60;;;;;;5035179;28;19905;-83
2023/06/18 10:19:25;;;;;;;;;;;25.90;60.00;;;;;;5035736;28;20417;-83
2023/06/18 10:21:57;;;;;;;;;;;26.10;58.50;;;;;;5038945;28;20435;-83
2023/06/18 10:24:34;;;;;;;;;;;26.10;58.80;;;;;;5051654;28;20342;-83
2023/06/18 10:27:00;;;;;;;;;;;26.30;58.20;;;;;;5034541;28;20278;-83
2023/06/18 10:29:26;;;;;;;;;;;26.50;58.20;;;;;;5040528;28;19951;-83
2023/06/18 10:31:52;;;;;;;;;;;26.60;56.10;;;;;;5042423;28;19909;-83
2023/06/18 10:34:17;;;;;;;;;;;26.60;55.90;;;;;;5040583;28;19924;-83
2023/06/18 10:36:43;;;;;;;;;;;26.70;53.60;;;;;;5054462;28;19920;-84
2023/06/18 10:39:09;;;;;;;;;;;26.70;57.00;;;;;;5029369;28;19913;-84
2023/06/18 10:41:35;;;;;;;;;;;26.80;55.40;;;;;;5034162;28;20078;-84
2023/06/18 10:44:00;;;;;;;;;;;26.90;55.60;;;;;;5056014;28;20058;-85
2023/06/18 10:46:26;;;;;;;;;;;27.00;54.10;;;;;;5041045;28;19909;-84
2023/06/18 10:49:11;;;;;;;;;;;27.10;54.00;;;;;;5042197;28;20350;-84
2023/06/18 10:51:36;;;;;;;;;;;27.20;54.80;;;;;;5038376;28;20369;-84
2023/06/18 10:54:18;;;;;;;;;;;27.30;56.00;;;;;;5039924;28;19920;-84
2023/06/18 10:56:51;;;;;;;;;;;27.30;55.20;;;;;;5018181;28;20354;-84
2023/06/18 10:59:32;;;;;;;;;;;27.40;53.50;;;;;;5025517;28;19905;-84
2023/06/18 11:02:01;;;;;;;;;;;27.40;53.30;;;;;;5033626;28;19916;-85
2023/06/18 11:04:31;;;;;;;;;;;27.40;51.60;;;;;;5036170;28;19905;-83
2023/06/18 11:07:12;;;;;;;;;;;27.40;51.90;;;;;;5021504;28;19927;-83
2023/06/18 11:09:58;;;;;;;;;;;27.50;52.60;;;;;;5037188;28;19921;-83
2023/06/18 11:12:23;;;;;;;;;;;27.50;53.80;;;;;;5039280;28;20004;-84
2023/06/18 11:15:08;;;;;;;;;;;27.60;53.30;;;;;;5038781;28;19999;-83
2023/06/18 11:17:33;;;;;;;;;;;27.70;51.20;;;;;;5040561;28;20341;-84
2023/06/18 11:20:00;;;;;;;;;;;27.80;53.90;;;;;;5038150;28;19945;-84
2023/06/18 11:22:27;;;;;;;;;;;27.90;50.70;;;;;;5037859;28;19908;-84
2023/06/18 11:24:53;;;;;;;;;;;27.90;53.00;;;;;;5025493;28;19909;-84
2023/06/18 11:27:19;;;;;;;;;;;28.00;49.60;;;;;;5017290;28;19920;-83
2023/06/18 11:29:45;;;;;;;;;;;27.90;51.50;;;;;;5020445;28;19949;-84
2023/06/18 11:32:14;;;;;;;;;;;28.00;52.00;;;;;;5030560;28;19916;-84
2023/06/18 11:34:40;;;;;;;;;;;28.00;51.20;;;;;;5034296;28;19916;-84
2023/06/18 11:37:06;;;;;;;;;;;28.00;53.20;;;;;;5033258;28;19936;-84
2023/06/18 11:39:32;;;;;;;;;;;28.10;51.50;;;;;;5032414;28;20008;-84
2023/06/18 11:42:14;;;;;;;;;;;28.10;50.80;;;;;;5034881;28;19945;-83
2023/06/18 11:44:49;;;;;;;;;;;28.20;49.60;;;;;;5033240;28;19909;-83
2023/06/18 11:47:15;;;;;;;;;;;28.40;51.60;;;;;;5037259;28;19905;-83
2023/06/18 11:49:42;;;;;;;;;;;28.40;51.70;;;;;;5037013;28;20487;-83
2023/06/18 11:52:07;;;;;;;;;;;28.50;52.00;;;;;;5036006;28;19916;-83
2023/06/18 11:54:40;;;;;;;;;;;28.40;51.00;;;;;;5026703;28;20265;-84
2023/06/18 11:57:15;;;;;;;;;;;28.50;50.30;;;;;;5016213;28;20412;-83
2023/06/18 11:59:42;;;;;;;;;;;28.50;49.20;;;;;;5016409;28;19999;-83
2023/06/18 12:02:14;;;;;;;;;;;28.50;48.10;;;;;;5032732;28;19913;-84
2023/06/18 12:04:41;;;;;;;;;;;28.50;49.90;;;;;;5035519;28;19905;-84
2023/06/18 12:07:07;;;;;;;;;;;28.60;48.00;;;;;;5031121;28;19910;-84
2023/06/18 12:09:36;;;;;;;;;;;28.70;50.90;;;;;;5022591;28;19951;-84
2023/06/18 12:12:01;;;;;;;;;;;28.70;48.30;;;;;;5052472;28;19905;-84
2023/06/18 12:14:50;;;;;;;;;;;28.80;50.40;;;;;;5035930;28;19905;-84
2023/06/18 12:17:18;;;;;;;;;;;28.80;46.40;;;;;;5014528;28;19971;-84
2023/06/18 12:19:46;;;;;;;;;;;28.80;49.10;;;;;;5035273;28;19917;-84
2023/06/18 12:22:13;;;;;;;;;;;28.80;47.10;;;;;;5024410;28;19909;-84
2023/06/18 12:24:38;;;;;;;;;;;28.90;49.20;;;;;;5026155;28;19959;-85
2023/06/18 12:27:04;;;;;;;;;;;29.10;47.70;;;;;;5034888;28;20292;-85
2023/06/18 12:29:30;;;;;;;;;;;29.20;48.20;;;;;;5018054;28;20308;-85
2023/06/18 12:32:05;;;;;;;;;;;29.20;47.70;;;;;;5016398;28;19909;-84
2023/06/18 12:34:35;;;;;;;;;;;29.10;47.20;;;;;;5050653;28;19943;-84
2023/06/18 12:37:01;;;;;;;;;;;29.10;46.70;;;;;;5034088;28;19944;-85
2023/06/18 12:39:26;;;;;;;;;;;29.10;47.20;;;;;;5035729;28;19905;-85
2023/06/18 12:41:52;;;;;;;;;;;29.20;51.10;;;;;;5033275;28;20395;-85
2023/06/18 12:44:18;;;;;;;;;;;29.30;49.70;;;;;;5016810;28;19913;-85
2023/06/18 12:46:44;;;;;;;;;;;29.40;49.60;;;;;;5036461;28;19913;-85
2023/06/18 12:49:14;;;;;;;;;;;29.50;49.70;;;;;;5035090;28;19956;-84
2023/06/18 12:51:49;;;;;;;;;;;29.60;47.20;;;;;;5034035;28;19998;-84
2023/06/18 12:54:17;;;;;;;;;;;29.60;47.00;;;;;;5033609;28;19951;-85
2023/06/18 12:56:49;;;;;;;;;;;29.50;48.00;;;;;;5033613;28;19905;-85
2023/06/18 12:59:18;;;;;;;;;;;29.50;46.90;;;;;;5034715;28;19928;-85
2023/06/18 13:01:44;;;;;;;;;;;29.50;46.20;;;;;;5034395;28;19913;-85
2023/06/18 13:04:10;;;;;;;;;;;29.60;47.00;;;;;;5033676;28;19909;-85
2023/06/18 13:06:36;;;;;;;;;;;29.60;47.20;;;;;;5045803;28;19962;-85
2023/06/18 13:09:04;;;;;;;;;;;29.70;49.00;;;;;;5054687;28;20467;-85
2023/06/18 13:11:30;;;;;;;;;;;29.80;46.50;;;;;;5054575;28;19909;-85
2023/06/18 13:13:55;;;;;;;;;;;30.00;46.70;;;;;;5053499;28;19959;-84
2023/06/18 13:16:21;;;;;;;;;;;30.00;46.50;;;;;;5054709;28;19916;-83
2023/06/18 13:18:46;;;;;;;;;;;30.00;46.00;;;;;;5053335;22;19921;-83
2023/06/18 13:21:12;;;;;;;;;;;30.00;48.50;;;;;;5034502;28;20349;-81
2023/06/18 13:23:38;;;;;;;;;;;29.90;45.30;;;;;;5034710;28;20352;-80
2023/06/18 13:26:03;;;;;;;;;;;29.90;47.40;;;;;;5034994;28;20386;-80
2023/06/18 13:28:29;;;;;;;;;;;29.90;47.70;;;;;;5034647;28;19913;-80
2023/06/18 13:30:55;;;;;;;;;;;29.90;46.20;;;;;;5017006;28;20050;-87
2023/06/18 13:33:20;;;;;;;;;;;29.90;46.60;;;;;;5033883;28;19937;-83
2023/06/18 13:35:46;;;;;;;;;;;30.00;46.20;;;;;;5028621;28;19964;-84
2023/06/18 13:38:13;;;;;;;8.90;6.00;;;30.10;47.30;;;;;;5013711;28;19906;-84
2023/06/18 13:40:38;;;;;;;7.90;6.60;;;30.10;46.60;;;;;;5018170;28;20030;-84
2023/06/18 13:43:04;;;;;;;;;;;30.20;46.60;;;;;;4997798;28;20085;-84
2023/06/18 13:45:30;;;;;;;;;;;30.20;46.30;;;;;;5012746;28;19959;-84
2023/06/18 13:47:55;;;;;;;;;;;30.10;45.70;;;;;;5015460;28;19939;-84
2023/06/18 13:50:21;;;;;;;;;;;30.00;45.80;;;;;;5015040;28;20405;-84
2023/06/18 13:52:47;;;;;;;;;;;29.80;45.50;;;;;;5016184;28;20008;-84
2023/06/18 13:55:12;;;;;;;;;;;29.80;45.90;;;;;;5016114;28;20026;-84
2023/06/18 13:57:38;;;;;;;;;;;29.80;47.60;;;;;;5018417;28;19996;-84
2023/06/18 14:00:04;;;;;;;8.15;5.97;;;29.80;45.50;;;;;;5018303;28;20388;-85
2023/06/18 14:02:30;;;;;;;9.25;5.50;;;29.70;46.60;;;;;;5018699;28;20393;-85
2023/06/18 14:04:56;;;;;;;10.52;6.32;;;29.70;45.90;;;;;;5018757;28;20038;-83
2023/06/18 14:07:22;;;;;;;9.40;5.72;;;29.60;46.00;;;;;;4997785;28;20125;-84
2023/06/18 14:09:47;;;;;;;7.10;5.55;;;29.60;45.60;;;;;;5013751;28;20498;-86
2023/06/18 14:12:15;;;;;;;6.68;5.57;;;29.60;47.20;;;;;;5012738;28;20037;-87
2023/06/18 14:14:40;;;;;;;7.82;6.05;;;29.60;46.50;;;;;;4996253;28;20053;-87